Time;durP1;ratioP1;P1;durP2;ratioP2;P2;SDS_P1;SDS_P2;PMS_P1;PMS_P2;Temp;Humidity;BMP_temperature;BMP_pressure;BME280_temperature;BME280_humidity;BME280_pressure;Samples;Min_cycle;Max_cycle;Signal;HPM_P1;HPM_P2
2023/03/01 00:00:49;;;;;;;21.02;10.20;;;;;;;0.82;100.00;102691.38;4942996;28;20062;-75
2023/03/01 00:03:15;;;;;;;21.00;10.65;;;;;;;0.78;100.00;102688.44;4946195;28;20713;-72
2023/03/01 00:05:46;;;;;;;20.08;10.40;;;;;;;0.78;100.00;102684.88;4944693;28;20786;-73
2023/03/01 00:08:13;;;;;;;19.55;10.60;;;;;;;0.77;100.00;102675.88;4946927;28;20146;-72
2023/03/01 00:10:39;;;;;;;20.67;10.63;;;;;;;0.77;100.00;102683.25;4945868;28;20142;-73
2023/03/01 00:13:06;;;;;;;22.15;10.65;;;;;;;0.65;100.00;102680.91;4946397;28;20066;-76
2023/03/01 00:15:34;;;;;;;18.08;9.73;;;;;;;0.58;100.00;102679.56;4945844;28;20052;-73
2023/03/01 00:18:01;;;;;;;20.67;10.55;;;;;;;0.54;100.00;102678.53;4942976;28;20058;-73
2023/03/01 00:20:27;;;;;;;22.48;11.80;;;;;;;0.52;100.00;102676.06;4944827;28;20518;-72
2023/03/01 00:22:54;;;;;;;19.23;10.05;;;;;;;0.55;100.00;102682.88;4946308;28;20049;-73
2023/03/01 00:25:20;;;;;;;21.95;10.55;;;;;;;0.53;100.00;102676.88;4945673;28;20044;-73
2023/03/01 00:27:48;;;;;;;22.13;10.50;;;;;;;0.53;100.00;102682.31;4944946;28;20055;-73
2023/03/01 00:30:15;;;;;;;20.85;10.38;;;;;;;0.55;100.00;102678.25;4946012;28;20085;-73
2023/03/01 00:32:42;;;;;;;20.20;10.38;;;;;;;0.53;100.00;102657.81;4945209;28;20051;-74
2023/03/01 00:35:08;;;;;;;20.17;11.02;;;;;;;0.59;100.00;102664.84;4945313;28;20055;-73
2023/03/01 00:37:35;;;;;;;22.77;10.90;;;;;;;0.59;100.00;102670.31;4944626;28;20063;-76
2023/03/01 00:40:01;;;;;;;21.17;10.57;;;;;;;0.56;100.00;102662.69;4944425;28;20426;-73
2023/03/01 00:42:28;;;;;;;20.45;11.13;;;;;;;0.52;100.00;102653.47;4945595;28;20052;-73
2023/03/01 00:44:54;;;;;;;21.15;10.15;;;;;;;0.50;100.00;102653.75;4945933;28;20501;-72
2023/03/01 00:47:21;;;;;;;19.90;9.95;;;;;;;0.49;100.00;102649.41;4946325;28;20074;-75
2023/03/01 00:49:48;;;;;;;19.95;10.27;;;;;;;0.47;100.00;102646.13;4928898;28;20065;-72
2023/03/01 00:52:14;;;;;;;23.38;11.75;;;;;;;0.43;100.00;102649.72;4945819;28;20522;-75
2023/03/01 00:54:41;;;;;;;22.58;10.38;;;;;;;0.43;100.00;102649.72;4945973;28;20473;-73
2023/03/01 00:57:07;;;;;;;21.65;10.93;;;;;;;0.41;100.00;102643.75;4946034;28;20050;-75
2023/03/01 00:59:34;;;;;;;19.25;10.50;;;;;;;0.39;100.00;102651.38;4929415;28;20059;-74
2023/03/01 01:02:01;;;;;;;19.90;10.13;;;;;;;0.34;100.00;102635.09;4945165;28;20050;-73
2023/03/01 01:04:27;;;;;;;19.65;10.18;;;;;;;0.32;100.00;102643.53;4941547;28;20056;-73
2023/03/01 01:06:54;;;;;;;25.45;11.48;;;;;;;0.33;100.00;102645.16;4944156;28;20061;-74
2023/03/01 01:09:20;;;;;;;21.67;11.25;;;;;;;0.31;100.00;102647.34;4946085;28;20054;-72
2023/03/01 01:11:50;;;;;;;22.15;10.65;;;;;;;0.30;100.00;102644.91;4945592;28;20051;-73
2023/03/01 01:14:17;;;;;;;22.05;10.57;;;;;;;0.25;100.00;102634.03;4945726;28;20778;-72
2023/03/01 01:16:44;;;;;;;21.15;11.27;;;;;;;0.22;100.00;102626.44;4945566;28;20051;-72
2023/03/01 01:19:11;;;;;;;20.67;10.32;;;;;;;0.21;100.00;102636.53;4945470;28;20099;-73
2023/03/01 01:21:37;;;;;;;19.75;10.70;;;;;;;0.20;100.00;102634.88;4945027;28;20054;-74
2023/03/01 01:24:05;;;;;;;24.33;11.50;;;;;;;0.18;100.00;102631.66;4943775;28;20057;-71
2023/03/01 01:26:33;;;;;;;22.52;11.40;;;;;;;0.10;100.00;102623.25;4945071;28;20090;-73
2023/03/01 01:29:02;;;;;;;23.45;12.63;;;;;;;0.09;100.00;102621.63;4948607;28;20492;-72
2023/03/01 01:31:29;;;;;;;21.00;11.27;;;;;;;0.07;100.00;102615.66;4949736;28;20529;-74
2023/03/01 01:33:57;;;;;;;24.67;12.02;;;;;;;0.07;100.00;102618.38;4948514;28;20055;-72
2023/03/01 01:36:24;;;;;;;24.98;12.68;;;;;;;0.04;100.00;102614.31;4949371;28;20065;-72
2023/03/01 01:38:50;;;;;;;22.13;10.93;;;;;;;0.00;100.00;102616.78;4947815;28;20359;-72
2023/03/01 01:41:19;;;;;;;23.23;11.35;;;;;;;-0.24;100.00;102574.19;4949670;28;20572;-73
2023/03/01 01:44:09;;;;;;;22.90;12.20;;;;;;;-0.05;100.00;102616.81;4948194;28;20062;-73
2023/03/01 01:46:42;;;;;;;20.58;10.40;;;;;;;-0.11;100.00;102623.38;4949477;28;20063;-73
2023/03/01 01:49:22;;;;;;;20.52;11.35;;;;;;;-0.13;100.00;102620.09;4943436;28;20051;-76
2023/03/01 01:51:55;;;;;;;23.08;10.93;;;;;;;-0.16;100.00;102609.78;4949045;28;20517;-73
2023/03/01 01:54:31;;;;;;;22.02;11.32;;;;;;;-0.19;100.00;102610.34;4948180;28;20047;-75
2023/03/01 01:57:06;;;;;;;19.92;10.48;;;;;;;-0.21;100.00;102611.72;4949121;28;20047;-74
2023/03/01 01:59:34;;;;;;;23.13;10.90;;;;;;;-0.23;100.00;102600.31;4948963;28;20432;-73
2023/03/01 02:02:03;;;;;;;23.90;10.85;;;;;;;-0.42;100.00;102597.41;4948623;28;20051;-72
2023/03/01 02:04:31;;;;;;;18.90;10.07;;;;;;;-0.52;100.00;102597.44;4947387;28;20051;-74
2023/03/01 02:07:04;;;;;;;21.92;10.85;;;;;;;-0.61;100.00;102595.59;4948470;28;20058;-73
2023/03/01 02:09:32;;;;;;;20.40;10.98;;;;;;;-0.67;100.00;102588.53;4947914;28;20055;-74
2023/03/01 02:11:59;;;;;;;23.88;11.43;;;;;;;-0.66;100.00;102593.69;4946914;28;20043;-74
2023/03/01 02:14:28;;;;;;;24.58;12.00;;;;;;;-0.62;100.00;102589.31;4949375;28;20389;-74
2023/03/01 02:16:54;;;;;;;22.60;11.40;;;;;;;-0.57;100.00;102593.94;4947500;28;20520;-73
2023/03/01 02:19:28;;;;;;;23.88;10.88;;;;;;;-0.69;100.00;102586.09;4947176;28;20055;-73
2023/03/01 02:21:55;;;;;;;22.05;11.75;;;;;;;-0.75;100.00;102580.94;4946797;28;20055;-74
2023/03/01 02:24:21;;;;;;;21.48;11.38;;;;;;;-0.71;100.00;102585.53;4946096;28;20135;-73
2023/03/01 02:26:58;;;;;;;26.08;11.80;;;;;;;-0.68;100.00;102576.00;4947952;28;20047;-74
2023/03/01 02:29:26;;;;;;;22.90;11.48;;;;;;;-0.65;100.00;102573.56;4947300;28;20051;-72
2023/03/01 02:31:56;;;;;;;23.77;10.40;;;;;;;-0.69;100.00;102577.94;4947624;28;20055;-73
2023/03/01 02:34:25;;;;;;;19.67;10.43;;;;;;;-0.65;100.00;102584.44;4946992;28;20047;-75
2023/03/01 02:37:04;;;;;;;22.55;11.05;;;;;;;-0.70;100.00;102584.47;4946934;28;20054;-72
2023/03/01 02:39:41;;;;;;;21.83;10.93;;;;;;;-0.72;100.00;102575.75;4943205;28;20055;-74
2023/03/01 02:42:15;;;;;;;20.55;10.77;;;;;;;-0.68;100.00;102585.00;4945433;28;20043;-74
2023/03/01 02:44:42;;;;;;;20.95;11.82;;;;;;;-0.70;100.00;102584.47;4949493;28;20059;-73
2023/03/01 02:47:08;;;;;;;21.17;11.50;;;;;;;-0.72;100.00;102583.91;4946928;28;20805;-74
2023/03/01 02:49:36;;;;;;;22.45;11.50;;;;;;;-0.76;100.00;102582.03;4946557;28;20051;-75
2023/03/01 02:52:14;;;;;;;21.27;11.20;;;;;;;-0.73;100.00;102592.34;4947254;28;20043;-73
2023/03/01 02:54:59;;;;;;;24.65;11.30;;;;;;;-0.75;100.00;102584.47;4947584;28;20047;-73
2023/03/01 02:57:27;;;;;;;20.25;10.88;;;;;;;-0.82;100.00;102591.28;4945356;28;20074;-70
2023/03/01 02:59:56;;;;;;;22.38;11.48;;;;;;;-0.91;100.00;102585.59;4947415;28;20154;-73
2023/03/01 03:02:38;;;;;;;22.35;11.80;;;;;;;-0.89;100.00;102588.03;4946224;28;20043;-72
2023/03/01 03:05:10;;;;;;;20.30;11.00;;;;;;;-0.89;100.00;102582.59;4947706;28;20051;-73
2023/03/01 03:07:39;;;;;;;21.98;11.57;;;;;;;-0.89;100.00;102591.59;4952317;28;20129;-73
2023/03/01 03:10:19;;;;;;;24.23;11.82;;;;;;;-0.91;100.00;102584.81;4953888;28;20057;-73
2023/03/01 03:12:54;;;;;;;24.55;12.55;;;;;;;-0.92;100.00;102583.97;4952327;28;20509;-76
2023/03/01 03:15:22;;;;;;;24.80;11.60;;;;;;;-0.92;100.00;102583.16;4952995;28;20079;-73
2023/03/01 03:17:50;;;;;;;21.98;11.93;;;;;;;-0.94;100.00;102580.72;4952245;28;20055;-74
2023/03/01 03:20:19;;;;;;;20.60;11.48;;;;;;;-0.92;100.00;102577.72;4953653;28;20059;-74
2023/03/01 03:22:51;;;;;;;23.83;11.63;;;;;;;-0.94;100.00;102571.75;4953760;28;20126;-74
2023/03/01 03:25:18;;;;;;;25.42;11.02;;;;;;;-1.00;100.00;102570.13;4950666;28;20058;-74
2023/03/01 03:27:47;;;;;;;23.15;11.65;;;;;;;-0.99;100.00;102575.31;4950458;28;20056;-73
2023/03/01 03:30:17;;;;;;;22.98;11.40;;;;;;;-0.96;100.00;102574.75;4951454;28;20159;-73
2023/03/01 03:32:52;;;;;;;22.15;11.73;;;;;;;-0.99;100.00;102569.03;4951109;28;20047;-73
2023/03/01 03:35:25;;;;;;;23.48;12.15;;;;;;;-1.02;100.00;102573.13;4950266;28;20055;-74
2023/03/01 03:38:01;;;;;;;22.00;11.98;;;;;;;-1.01;100.00;102569.31;4948519;28;20043;-70
2023/03/01 03:40:29;;;;;;;24.65;12.93;;;;;;;-1.05;100.00;102573.69;4950281;28;20182;-70
2023/03/01 03:42:56;;;;;;;22.75;11.30;;;;;;;-1.09;100.00;102569.06;4951944;28;20059;-73
2023/03/01 03:45:22;;;;;;;23.13;11.63;;;;;;;-1.15;100.00;102551.97;4963223;28;20142;-73
2023/03/01 03:47:49;;;;;;;24.27;12.98;;;;;;;-1.14;100.00;102553.63;4958721;28;20428;-72
2023/03/01 03:50:17;;;;;;;22.30;11.23;;;;;;;-1.14;100.00;102552.78;4956205;28;20077;-72
2023/03/01 03:52:44;;;;;;;23.55;11.23;;;;;;;-1.15;100.00;102551.16;4944050;28;20508;-72
2023/03/01 03:55:12;;;;;;;23.73;11.80;;;;;;;-1.16;100.00;102546.81;4953121;28;20767;-73
2023/03/01 03:57:42;;;;;;;23.85;11.48;;;;;;;-1.16;100.00;102555.78;4953458;28;20559;-73
2023/03/01 04:00:14;;;;;;;20.88;10.65;;;;;;;-1.18;100.00;102541.66;4954624;28;20509;-72
2023/03/01 04:02:45;;;;;;;21.45;11.63;;;;;;;-1.18;100.00;102540.84;4949065;28;20063;-72
2023/03/01 04:05:14;;;;;;;26.30;11.95;;;;;;;-1.20;100.00;102537.59;4957675;28;20506;-72
2023/03/01 04:07:42;;;;;;;28.88;13.55;;;;;;;-1.26;100.00;102534.06;4956608;28;20076;-73
2023/03/01 04:10:17;;;;;;;23.70;12.80;;;;;;;-1.24;100.00;102536.50;4959194;28;20058;-71
2023/03/01 04:12:43;;;;;;;23.42;12.23;;;;;;;-1.26;100.00;102533.25;4952460;28;20070;-73
2023/03/01 04:15:14;;;;;;;24.52;12.45;;;;;;;-1.30;100.00;102533.00;4958444;28;20062;-74
2023/03/01 04:17:46;;;;;;;23.58;11.55;;;;;;;-1.33;100.00;102546.28;4953047;28;20138;-71
2023/03/01 04:20:24;;;;;;;22.95;11.48;;;;;;;-1.38;100.00;102530.03;4955998;28;20441;-74
2023/03/01 04:23:10;;;;;;;24.23;10.82;;;;;;;-1.38;100.00;102538.97;4956069;28;20046;-72
2023/03/01 04:25:54;;;;;;;24.52;12.30;;;;;;;-1.38;100.00;102538.97;4958705;28;20093;-73
2023/03/01 04:28:24;;;;;;;21.48;11.38;;;;;;;-1.40;100.00;102535.72;4949880;28;20075;-73
2023/03/01 04:30:52;;;;;;;25.08;11.82;;;;;;;-1.42;100.00;102546.03;4951601;28;20057;-73
2023/03/01 04:33:22;;;;;;;26.75;12.75;;;;;;;-1.43;100.00;102541.69;4950571;28;20043;-73
2023/03/01 04:35:51;;;;;;;31.48;12.77;;;;;;;-1.41;100.00;102541.44;4935272;28;20047;-75
2023/03/01 04:38:20;;;;;;;27.00;13.65;;;;;;;-1.44;100.00;102533.81;4953288;28;20051;-71
2023/03/01 04:40:47;;;;;;;26.05;13.43;;;;;;;-1.45;100.00;102534.91;4946859;28;20050;-73
2023/03/01 04:43:14;;;;;;;23.75;12.35;;;;;;;-1.59;100.00;102533.84;4952289;28;20821;-73
2023/03/01 04:45:41;;;;;;;26.60;12.73;;;;;;;-1.69;100.00;102531.94;4950694;28;20131;-73
2023/03/01 04:48:08;;;;;;;22.45;12.25;;;;;;;-1.75;100.00;102530.31;4948871;28;20580;-72
2023/03/01 04:50:34;;;;;;;25.23;12.88;;;;;;;-1.78;100.00;102528.16;4949740;28;20135;-71
2023/03/01 04:53:01;;;;;;;34.10;12.77;;;;;;;-1.72;100.00;102528.97;4941601;28;20043;-73
2023/03/01 04:55:28;;;;;;;25.67;12.90;;;;;;;-1.69;100.00;102523.00;4963146;28;20077;-70
2023/03/01 04:57:55;;;;;;;25.30;12.85;;;;;;;-1.68;100.00;102522.72;4952899;28;20121;-72
2023/03/01 05:00:22;;;;;;;25.23;13.65;;;;;;;-1.70;100.00;102522.16;4966917;28;20425;-72
2023/03/01 05:02:52;;;;;;;25.92;12.98;;;;;;;-1.68;100.00;102533.59;4959235;28;20133;-71
2023/03/01 05:05:25;;;;;;;25.02;12.02;;;;;;;-1.68;100.00;102530.88;4957743;28;20051;-74
2023/03/01 05:07:56;;;;;;;24.35;13.93;;;;;;;-1.68;100.00;102525.44;4935258;28;20055;-74
2023/03/01 05:10:23;;;;;;;25.05;12.70;;;;;;;-1.73;100.00;102522.72;4963724;28;20058;-71
2023/03/01 05:12:51;;;;;;;25.00;12.68;;;;;;;-1.71;100.00;102528.69;4954499;28;20054;-73
2023/03/01 05:15:18;;;;;;;22.58;12.63;;;;;;;-1.72;100.00;102529.75;4957495;28;20051;-72
2023/03/01 05:17:46;;;;;;;24.75;12.38;;;;;;;-1.73;100.00;102520.00;4957912;28;20062;-75
2023/03/01 05:20:12;;;;;;;27.33;13.98;;;;;;;-1.72;100.00;102524.34;4964728;28;20367;-68
2023/03/01 05:22:39;;;;;;;26.92;14.13;;;;;;;-1.77;100.00;102510.78;4960188;28;20061;-73
2023/03/01 05:25:07;;;;;;;25.23;13.90;;;;;;;-1.74;100.00;102515.66;4962719;28;20047;-71
2023/03/01 05:27:34;;;;;;;26.73;12.65;;;;;;;-1.78;100.00;102519.19;4959721;28;20059;-69
2023/03/01 05:30:13;;;;;;;25.80;13.05;;;;;;;-1.79;100.00;102518.34;4953763;28;20043;-73
2023/03/01 05:32:44;;;;;;;24.40;13.05;;;;;;;-1.82;100.00;102512.69;4954433;28;20043;-71
2023/03/01 05:35:13;;;;;;;26.63;13.57;;;;;;;-1.76;100.00;102525.97;4958644;28;20200;-72
2023/03/01 05:37:44;;;;;;;29.38;14.43;;;;;;;-1.77;100.00;102518.91;4954194;28;20110;-73
2023/03/01 05:40:15;;;;;;;24.92;12.93;;;;;;;-1.77;100.00;102516.19;4958245;28;20054;-72
2023/03/01 05:42:54;;;;;;;23.42;12.68;;;;;;;-1.79;100.00;102514.84;4953237;28;20444;-70
2023/03/01 05:45:23;;;;;;;26.33;14.07;;;;;;;-1.87;100.00;102516.19;4955107;28;20057;-70
2023/03/01 05:47:51;;;;;;;26.17;13.50;;;;;;;-1.90;100.00;102516.75;4955361;28;20166;-73
2023/03/01 05:50:28;;;;;;;28.20;12.82;;;;;;;-1.87;100.00;102520.81;4955748;28;20102;-72
2023/03/01 05:52:59;;;;;;;24.17;12.95;;;;;;;-1.87;100.00;102520.81;4953540;28;20497;-72
2023/03/01 05:55:26;;;;;;;26.38;13.10;;;;;;;-1.88;100.00;102521.91;4937565;29;20055;-72
2023/03/01 05:57:54;;;;;;;30.08;14.40;;;;;;;-1.87;100.00;102512.66;4952707;28;20083;-72
2023/03/01 06:00:24;;;;;;;32.03;14.00;;;;;;;-1.89;100.00;102528.41;4952091;28;20043;-72
2023/03/01 06:02:51;;;;;;;26.08;13.50;;;;;;;-1.94;100.00;102514.84;4951479;28;20068;-73
2023/03/01 06:05:18;;;;;;;26.92;12.63;;;;;;;-2.03;100.00;102511.06;4950143;28;20051;-71
2023/03/01 06:07:45;;;;;;;24.42;13.02;;;;;;;-2.04;100.00;102517.53;4953361;28;20055;-74
2023/03/01 06:10:12;;;;;;;30.67;14.10;;;;;;;-2.00;100.00;102511.31;4953422;28;20058;-74
2023/03/01 06:12:41;;;;;;;27.42;14.05;;;;;;;-1.98;100.00;102506.44;4958808;28;20051;-72
2023/03/01 06:15:09;;;;;;;31.45;14.52;;;;;;;-1.93;100.00;102503.72;4957308;28;20520;-73
2023/03/01 06:17:38;;;;;;;24.30;13.50;;;;;;;-1.92;100.00;102501.81;4955345;28;20051;-73
2023/03/01 06:20:10;;;;;;;33.30;14.02;;;;;;;-1.91;100.00;102500.72;4956755;28;20062;-73
2023/03/01 06:22:37;;;;;;;31.88;15.98;;;;;;;-1.92;100.00;102499.94;4960314;28;20047;-72
2023/03/01 06:25:04;;;;;;;30.52;14.73;;;;;;;-1.91;100.00;102498.03;4950573;28;20055;-73
2023/03/01 06:27:31;;;;;;;26.83;14.15;;;;;;;-1.89;100.00;102501.28;4958828;28;20058;-72
2023/03/01 06:29:57;;;;;;;32.65;14.98;;;;;;;-1.86;100.00;102496.13;4957070;28;20055;-74
2023/03/01 06:32:24;;;;;;;25.75;14.63;;;;;;;-1.85;100.00;102500.47;4954808;28;20047;-74
2023/03/01 06:34:51;;;;;;;29.92;15.75;;;;;;;-1.84;100.00;102504.81;4957386;28;20501;-75
2023/03/01 06:37:17;;;;;;;29.02;15.30;;;;;;;-1.84;100.00;102501.28;4958597;28;20097;-74
2023/03/01 06:39:44;;;;;;;27.80;14.73;;;;;;;-1.81;100.00;102498.84;4953053;28;20834;-73
2023/03/01 06:42:10;;;;;;;27.90;14.63;;;;;;;-1.80;100.00;102500.47;4962088;28;20062;-72
2023/03/01 06:44:37;;;;;;;28.30;15.20;;;;;;;-1.77;100.00;102502.63;4953512;28;20102;-74
2023/03/01 06:47:04;;;;;;;30.45;15.65;;;;;;;-1.75;100.00;102505.91;4949452;29;20051;-74
2023/03/01 06:49:31;;;;;;;30.88;14.65;;;;;;;-1.72;100.00;102505.34;4950106;28;20065;-73
2023/03/01 06:51:57;;;;;;;28.75;14.55;;;;;;;-1.69;100.00;102507.50;4940812;29;20569;-73
2023/03/01 06:54:24;;;;;;;25.83;15.18;;;;;;;-1.67;100.00;102516.19;4953683;28;20563;-73
2023/03/01 06:56:50;;;;;;;30.15;15.63;;;;;;;-1.67;100.00;102505.34;4953154;28;20047;-74
2023/03/01 06:59:17;;;;;;;30.90;16.00;;;;;;;-1.60;100.00;102511.31;4952386;28;20047;-73
2023/03/01 07:01:44;;;;;;;32.78;16.77;;;;;;;-1.54;100.00;102515.66;4951890;28;20051;-75
2023/03/01 07:04:11;;;;;;;28.17;15.02;;;;;;;-1.52;100.00;102510.75;4949823;28;20134;-74
2023/03/01 07:06:38;;;;;;;31.88;16.38;;;;;;;-1.51;100.00;102514.28;4952456;28;20081;-73
2023/03/01 07:09:04;;;;;;;29.10;14.98;;;;;;;-1.48;100.00;102503.69;4949586;28;20440;-73
2023/03/01 07:11:31;;;;;;;31.90;16.13;;;;;;;-1.46;100.00;102503.41;4948565;29;20517;-74
2023/03/01 07:13:59;;;;;;;28.92;15.18;;;;;;;-1.41;100.00;102500.69;4949925;29;20047;-71
2023/03/01 07:16:26;;;;;;;26.02;15.45;;;;;;;-1.35;100.00;102503.13;4950340;29;20050;-72
2023/03/01 07:18:52;;;;;;;26.65;14.07;;;;;;;-1.27;100.00;102502.56;4954632;28;20055;-72
2023/03/01 07:21:19;;;;;;;30.65;15.25;;;;;;;-1.23;100.00;102500.94;4958709;28;20158;-72
2023/03/01 07:23:47;;;;;;;30.27;15.30;;;;;;;-1.15;100.00;102494.91;4950458;29;20059;-72
2023/03/01 07:26:14;;;;;;;37.03;15.32;;;;;;;-1.09;100.00;102493.00;4948820;28;20838;-72
2023/03/01 07:28:40;;;;;;;25.45;14.80;;;;;;;-1.02;100.00;102494.34;4948225;29;20433;-72
2023/03/01 07:31:07;;;;;;;27.70;14.60;;;;;;;-0.95;100.00;102488.59;4949634;29;20701;-72
2023/03/01 07:33:33;;;;;;;27.40;15.10;;;;;;;-0.88;100.00;102500.81;4948949;29;20087;-72
2023/03/01 07:36:01;;;;;;;27.38;14.77;;;;;;;-0.82;100.00;102493.44;4948697;29;20086;-72
2023/03/01 07:38:28;;;;;;;27.45;13.98;;;;;;;-0.77;100.00;102496.16;4952828;28;20106;-72
2023/03/01 07:41:03;;;;;;;28.98;15.23;;;;;;;-0.68;100.00;102495.28;4949178;29;20441;-72
2023/03/01 07:43:30;;;;;;;33.67;16.48;;;;;;;-0.58;100.00;102494.41;4948948;28;20057;-73
2023/03/01 07:46:00;;;;;;;31.52;15.77;;;;;;;-0.49;100.00;102493.56;4954842;28;20667;-71
2023/03/01 07:48:27;;;;;;;29.17;14.77;;;;;;;-0.37;100.00;102490.50;4950834;28;20051;-72
2023/03/01 07:50:53;;;;;;;30.15;15.85;;;;;;;-0.27;100.00;102496.66;4953021;28;20141;-72
2023/03/01 07:53:20;;;;;;;30.00;15.40;;;;;;;-0.18;100.00;102492.25;4952458;28;20051;-73
2023/03/01 07:55:46;;;;;;;32.30;16.15;;;;;;;-0.09;100.00;102497.91;4950221;28;20059;-77
2023/03/01 07:58:13;;;;;;;27.70;15.85;;;;;;;-0.02;100.00;102491.06;4950196;28;20051;-72
2023/03/01 08:00:39;;;;;;;24.30;12.90;;;;;;;0.10;100.00;102487.16;4948988;28;20585;-72
2023/03/01 08:03:06;;;;;;;25.83;14.38;;;;;;;0.19;100.00;102488.16;4953032;28;20809;-72
2023/03/01 08:05:33;;;;;;;28.45;13.15;;;;;;;0.22;100.00;102487.59;4952838;28;20071;-72
2023/03/01 08:07:59;;;;;;;31.45;12.88;;;;;;;0.37;100.00;102490.19;4956520;28;20134;-70
2023/03/01 08:10:26;;;;;;;25.17;11.57;;;;;;;0.45;100.00;102501.28;4958206;28;20059;-69
2023/03/01 08:12:52;;;;;;;34.25;15.52;;;;;;;0.55;100.00;102493.00;4949992;28;20082;-73
2023/03/01 08:15:19;;;;;;;27.67;14.18;;;;;;;0.63;100.00;102491.56;4955238;28;20785;-69
2023/03/01 08:17:49;;;;;;;34.30;15.85;;;;;;;0.72;100.00;102490.66;4947374;28;20047;-69
2023/03/01 08:20:16;;;;;;;28.08;16.30;;;;;;;0.79;100.00;102491.13;4959239;28;20057;-69
2023/03/01 08:22:45;;;;;;;27.65;14.50;;;;;;;0.88;100.00;102483.91;4952978;28;20047;-70
2023/03/01 08:25:11;;;;;;;26.67;13.02;;;;;;;0.94;100.00;102485.47;4954601;28;20055;-70
2023/03/01 08:27:38;;;;;;;32.45;15.20;;;;;;;1.00;100.00;102481.59;4947819;28;20063;-69
2023/03/01 08:30:05;;;;;;;30.83;15.63;;;;;;;1.11;100.00;102485.81;4951883;28;20058;-70
2023/03/01 08:32:37;;;;;;;31.73;16.10;;;;;;;1.20;100.00;102483.25;4950406;28;20055;-68
2023/03/01 08:35:04;;;;;;;29.33;16.40;;;;;;;1.28;100.00;102483.44;4948516;28;20044;-70
2023/03/01 08:37:33;;;;;;;32.45;16.77;;;;;;;1.38;100.00;102482.50;4959416;28;20054;-70
2023/03/01 08:40:00;;;;;;;34.15;16.92;;;;;;;1.44;100.00;102481.31;4954815;28;20157;-70
2023/03/01 08:42:27;;;;;;;26.55;13.13;;;;;;;1.50;100.00;102480.13;4953000;28;20055;-69
2023/03/01 08:44:53;;;;;;;28.90;15.02;;;;;;;1.58;100.00;102480.28;4961103;28;20063;-71
2023/03/01 08:47:20;;;;;;;28.55;14.65;;;;;;;1.68;100.00;102474.69;4956741;28;20129;-70
2023/03/01 08:49:46;;;;;;;32.55;15.15;;;;;;;1.75;100.00;102468.84;4952044;28;20051;-69
2023/03/01 08:52:13;;;;;;;26.98;14.43;;;;;;;1.88;100.00;102466.19;4955072;28;20061;-70
2023/03/01 08:54:39;;;;;;;26.20;13.15;;;;;;;1.98;100.00;102466.03;4957382;28;20047;-70
2023/03/01 08:57:06;;;;;;;26.23;14.25;;;;;;;2.10;100.00;102462.84;4953999;28;20059;-74
2023/03/01 08:59:36;;;;;;;24.23;11.82;;;;;;;2.23;100.00;102468.31;4947307;28;20142;-70
2023/03/01 09:02:05;;;;;;;29.20;14.32;;;;;;;2.37;100.00;102462.91;4953391;28;20109;-70
2023/03/01 09:04:33;;;;;;;22.42;11.10;;;;;;;2.54;100.00;102471.34;4950057;28;20054;-70
2023/03/01 09:06:59;;;;;;;21.20;11.13;;;;;;;2.65;100.00;102465.41;4956143;28;21787;-70
2023/03/01 09:09:26;;;;;;;22.92;10.25;;;;;;;2.79;100.00;102468.13;4948999;28;20639;-71
2023/03/01 09:11:52;;;;;;;15.75;8.13;;;;;;;2.92;100.00;102472.78;4947824;28;20130;-71
2023/03/01 09:14:19;;;;;;;24.33;12.38;;;;;;;3.00;100.00;102471.28;4945915;28;20500;-72
2023/03/01 09:16:46;;;;;;;20.75;9.20;;;;;;;3.06;100.00;102453.63;4941423;28;20505;-71
2023/03/01 09:19:13;;;;;;;19.10;9.20;;;;;;;3.13;100.00;102454.06;4948337;28;20532;-72
2023/03/01 09:21:40;;;;;;;22.05;11.27;;;;;;;3.28;100.00;102453.72;4943868;28;20053;-71
2023/03/01 09:24:13;;;;;;;20.75;10.45;;;;;;;3.40;100.00;102454.81;4948039;28;20057;-71
2023/03/01 09:26:40;;;;;;;22.95;11.32;;;;;;;3.54;100.00;102441.09;4947389;28;20572;-71
2023/03/01 09:29:06;;;;;;;12.95;4.93;;;;;;;3.66;100.00;102444.91;4947544;28;20053;-71
2023/03/01 09:31:33;;;;;;;22.77;9.25;;;;;;;3.76;100.00;102444.69;4944835;28;20143;-73
2023/03/01 09:33:59;;;;;;;23.85;11.15;;;;;;;3.90;100.00;102450.91;4950215;28;20043;-73
2023/03/01 09:36:26;;;;;;;22.63;11.00;;;;;;;3.99;100.00;102446.31;4950802;28;20043;-72
2023/03/01 09:38:53;;;;;;;20.98;9.05;;;;;;;4.14;100.00;102445.91;4950336;28;20047;-72
2023/03/01 09:41:38;;;;;;;21.45;9.60;;;;;;;4.31;100.00;102442.47;4949403;28;20047;-71
2023/03/01 09:44:18;;;;;;;18.23;6.82;;;;;;;4.37;100.00;102427.50;4950933;28;20057;-71
2023/03/01 09:46:46;;;;;;;18.65;8.48;;;;;;;4.49;100.00;102425.81;4950535;28;20051;-72
2023/03/01 09:49:18;;;;;;;13.95;6.63;;;;;;;4.64;100.00;102425.41;4947849;28;20066;-71
2023/03/01 09:52:21;;;;;;;18.92;8.40;;;;;;;4.77;100.00;102438.19;4949423;28;20142;-70
2023/03/01 09:54:51;;;;;;;25.17;8.93;;;;;;;4.93;100.00;102420.16;4946691;28;20053;-71
2023/03/01 09:57:26;;;;;;;13.13;6.05;;;;;;;5.01;100.00;102419.41;4947345;28;20061;-71
2023/03/01 10:00:14;;;;;;;18.63;8.95;;;;;;;5.12;100.00;102414.41;4951716;29;20047;-73
2023/03/01 10:02:52;;;;;;;18.35;7.68;;;;;;;5.18;100.00;102422.19;4948899;29;20059;-70
2023/03/01 10:06:04;;;;;;;12.85;5.63;;;;;;;5.21;100.00;102424.28;4950400;28;20109;-70
2023/03/01 10:08:58;;;;;;;24.23;10.80;;;;;;;5.21;100.00;102427.03;4947419;28;20043;-72
2023/03/01 10:11:31;;;;;;;22.13;9.20;;;;;;;5.37;100.00;102417.19;4941464;28;21057;-72
2023/03/01 10:14:15;;;;;;;21.15;9.65;;;;;;;5.52;100.00;102415.09;4947854;28;20165;-71
2023/03/01 10:16:58;;;;;;;19.42;8.75;;;;;;;5.67;100.00;102411.88;4947747;28;20130;-71
2023/03/01 10:19:39;;;;;;;21.08;9.70;;;;;;;5.82;100.00;102404.00;4951696;29;20057;-71
2023/03/01 10:22:15;;;;;;;20.17;9.80;;;;;;;5.88;98.07;102407.38;4948510;29;20922;-71
2023/03/01 10:24:43;;;;;;;20.05;8.95;;;;;;;5.89;95.59;102400.75;4949097;29;20528;-71
2023/03/01 10:27:21;;;;;;;22.15;9.00;;;;;;;6.00;96.85;102404.78;4951478;28;20143;-71
2023/03/01 10:30:06;;;;;;;24.60;7.13;;;;;;;6.22;96.46;102407.31;4949437;28;20051;-71
2023/03/01 10:32:33;;;;;;;15.43;6.70;;;;;;;6.26;92.29;102389.84;4954519;28;20142;-71
2023/03/01 10:35:00;;;;;;;18.40;8.73;;;;;;;6.34;89.99;102393.72;4953682;28;20077;-72
2023/03/01 10:37:27;;;;;;;13.07;6.18;;;;;;;6.49;89.28;102398.66;4951166;28;20520;-72
2023/03/01 10:40:00;;;;;;;22.75;8.93;;;;;;;6.63;90.83;102399.25;4952504;28;20050;-72
2023/03/01 10:42:37;;;;;;;15.48;6.25;;;;;;;6.76;86.47;102374.28;4951973;28;20061;-73
2023/03/01 10:45:19;;;;;;;15.68;6.03;;;;;;;6.95;86.23;102387.59;4952855;28;20070;-72
2023/03/01 10:47:45;;;;;;;4.75;2.95;;;;;;;7.05;85.84;102378.94;4957347;28;20550;-72
2023/03/01 10:50:20;;;;;;;18.17;8.93;;;;;;;7.13;85.54;102389.09;4936947;29;20051;-72
2023/03/01 10:53:03;;;;;;;16.70;7.03;;;;;;;7.12;80.83;102380.03;4952115;28;20247;-72
2023/03/01 10:55:39;;;;;;;18.20;8.57;;;;;;;7.15;80.15;102359.28;4949545;28;20585;-72
2023/03/01 10:58:17;;;;;;;18.38;7.90;;;;;;;7.35;80.16;102369.50;4944635;28;20054;-72
2023/03/01 11:00:52;;;;;;;15.68;6.93;;;;;;;7.51;79.53;102363.06;4957512;28;20050;-73
2023/03/01 11:03:34;;;;;;;12.15;4.93;;;;;;;7.68;76.62;102360.16;4950103;28;20061;-72
2023/03/01 11:06:05;;;;;;;18.73;8.30;;;;;;;7.92;76.10;102359.44;4951573;28;20042;-72
2023/03/01 11:08:43;;;;;;;10.48;3.35;;;;;;;8.13;75.06;102354.66;4950750;28;20047;-72
2023/03/01 11:11:15;;;;;;;18.98;8.85;;;;;;;8.30;75.77;102360.00;4944592;28;20460;-73
2023/03/01 11:13:54;;;;;;;17.85;7.78;;;;;;;8.42;69.34;102351.75;4948382;28;20146;-73
2023/03/01 11:16:25;;;;;;;18.13;7.32;;;;;;;8.97;71.09;102345.63;4950626;28;20046;-72
2023/03/01 11:19:16;;;;;;;18.30;7.88;;;;;;;9.25;63.96;102344.53;4949606;28;20144;-73